sensor_id;sensor_type;location;lat;lon;timestamp;pressure;altitude;pressure_sealevel;temperature;humidity
77047;BME280;65977;56.380;44.022;2022-12-11T00:01:30;100320.94;;;2.55;65.93
77047;BME280;65977;56.380;44.022;2022-12-11T00:03:56;100325.13;;;2.58;65.78
77047;BME280;65977;56.380;44.022;2022-12-11T00:06:22;100327.00;;;2.56;65.96
77047;BME280;65977;56.380;44.022;2022-12-11T00:08:52;100318.22;;;2.57;66.51
77047;BME280;65977;56.380;44.022;2022-12-11T00:11:19;100321.59;;;2.59;66.64
77047;BME280;65977;56.380;44.022;2022-12-11T00:13:45;100318.72;;;2.64;65.48
77047;BME280;65977;56.380;44.022;2022-12-11T00:16:11;100318.56;;;2.67;65.58
77047;BME280;65977;56.380;44.022;2022-12-11T00:18:37;100319.22;;;2.70;65.63
77047;BME280;65977;56.380;44.022;2022-12-11T00:21:05;100318.13;;;2.74;64.96
77047;BME280;65977;56.380;44.022;2022-12-11T00:23:32;100320.63;;;2.76;65.34
77047;BME280;65977;56.380;44.022;2022-12-11T00:25:58;100319.78;;;2.75;65.97
77047;BME280;65977;56.380;44.022;2022-12-11T00:28:24;100322.13;;;2.80;65.27
77047;BME280;65977;56.380;44.022;2022-12-11T00:30:49;100315.16;;;2.80;65.27
77047;BME280;65977;56.380;44.022;2022-12-11T00:33:15;100312.38;;;2.83;64.69
77047;BME280;65977;56.380;44.022;2022-12-11T00:35:44;100307.16;;;2.83;65.13
77047;BME280;65977;56.380;44.022;2022-12-11T00:38:20;100291.50;;;2.83;64.94
77047;BME280;65977;56.380;44.022;2022-12-11T00:40:46;100298.13;;;2.89;64.77
77047;BME280;65977;56.380;44.022;2022-12-11T00:43:13;100298.13;;;2.89;64.41
77047;BME280;65977;56.380;44.022;2022-12-11T00:45:41;100296.25;;;2.91;64.62
77047;BME280;65977;56.380;44.022;2022-12-11T00:48:08;100290.13;;;2.92;64.17
77047;BME280;65977;56.380;44.022;2022-12-11T00:50:35;100299.63;;;2.93;64.15
77047;BME280;65977;56.380;44.022;2022-12-11T00:53:01;100291.78;;;2.93;64.23
77047;BME280;65977;56.380;44.022;2022-12-11T00:55:27;100290.88;;;2.94;64.27
77047;BME280;65977;56.380;44.022;2022-12-11T00:57:54;100287.41;;;2.93;64.10
77047;BME280;65977;56.380;44.022;2022-12-11T01:00:21;100285.75;;;2.92;63.99
77047;BME280;65977;56.380;44.022;2022-12-11T01:02:49;100291.72;;;2.94;64.05
77047;BME280;65977;56.380;44.022;2022-12-11T01:05:16;100282.13;;;2.95;63.55
77047;BME280;65977;56.380;44.022;2022-12-11T01:07:41;100281.19;;;2.96;63.76
77047;BME280;65977;56.380;44.022;2022-12-11T01:10:10;100278.56;;;2.96;63.82
77047;BME280;65977;56.380;44.022;2022-12-11T01:12:56;100282.88;;;2.97;63.89
77047;BME280;65977;56.380;44.022;2022-12-11T01:15:25;100273.63;;;2.91;63.75
77047;BME280;65977;56.380;44.022;2022-12-11T01:17:52;100286.41;;;2.96;63.82
77047;BME280;65977;56.380;44.022;2022-12-11T01:20:19;100261.59;;;2.89;63.84
77047;BME280;65977;56.380;44.022;2022-12-11T01:22:45;100275.88;;;2.97;63.81
77047;BME280;65977;56.380;44.022;2022-12-11T01:25:10;100269.72;;;2.98;63.84
77047;BME280;65977;56.380;44.022;2022-12-11T01:27:37;100274.03;;;2.99;63.74
77047;BME280;65977;56.380;44.022;2022-12-11T01:30:05;100271.41;;;2.99;63.77
77047;BME280;65977;56.380;44.022;2022-12-11T01:32:33;100279.97;;;3.01;63.78
77047;BME280;65977;56.380;44.022;2022-12-11T01:34:59;100278.22;;;3.02;64.44
77047;BME280;65977;56.380;44.022;2022-12-11T01:37:25;100267.84;;;3.00;65.15
77047;BME280;65977;56.380;44.022;2022-12-11T01:39:50;100272.91;;;3.03;64.97
77047;BME280;65977;56.380;44.022;2022-12-11T01:42:18;100277.19;;;3.04;66.15
77047;BME280;65977;56.380;44.022;2022-12-11T01:47:10;100271.81;;;3.07;65.39
77047;BME280;65977;56.380;44.022;2022-12-11T01:49:37;100276.25;;;3.05;66.63
77047;BME280;65977;56.380;44.022;2022-12-11T01:52:17;100277.03;;;3.07;66.20
77047;BME280;65977;56.380;44.022;2022-12-11T01:54:44;100283.44;;;3.02;67.00
77047;BME280;65977;56.380;44.022;2022-12-11T01:57:12;100282.59;;;3.01;67.39
77047;BME280;65977;56.380;44.022;2022-12-11T01:59:42;100276.19;;;3.07;66.96
77047;BME280;65977;56.380;44.022;2022-12-11T02:02:22;100279.88;;;3.03;67.00
77047;BME280;65977;56.380;44.022;2022-12-11T02:04:50;100279.69;;;3.06;66.98
77047;BME280;65977;56.380;44.022;2022-12-11T02:07:16;100273.91;;;3.01;67.17
77047;BME280;65977;56.380;44.022;2022-12-11T02:09:42;100269.53;;;3.01;67.37
77047;BME280;65977;56.380;44.022;2022-12-11T02:13:11;100279.13;;;3.01;67.63
77047;BME280;65977;56.380;44.022;2022-12-11T02:15:36;100274.66;;;3.03;67.58
77047;BME280;65977;56.380;44.022;2022-12-11T02:23:29;100278.22;;;3.02;67.66
77047;BME280;65977;56.380;44.022;2022-12-11T02:26:13;100274.66;;;3.03;67.43
77047;BME280;65977;56.380;44.022;2022-12-11T02:28:51;100279.63;;;3.07;66.82
77047;BME280;65977;56.380;44.022;2022-12-11T02:31:40;100271.81;;;3.07;67.49
77047;BME280;65977;56.380;44.022;2022-12-11T02:36:37;100264.88;;;3.06;67.46
77047;BME280;65977;56.380;44.022;2022-12-11T02:39:07;100268.16;;;3.10;66.89
77047;BME280;65977;56.380;44.022;2022-12-11T02:41:35;100267.16;;;3.12;66.78
77047;BME280;65977;56.380;44.022;2022-12-11T02:44:01;100263.59;;;3.13;66.80
77047;BME280;65977;56.380;44.022;2022-12-11T02:46:29;100267.97;;;3.13;67.21
77047;BME280;65977;56.380;44.022;2022-12-11T02:48:56;100270.41;;;3.16;66.29
77047;BME280;65977;56.380;44.022;2022-12-11T02:51:28;100266.88;;;3.17;67.04
77047;BME280;65977;56.380;44.022;2022-12-11T02:53:58;100264.25;;;3.17;66.64
77047;BME280;65977;56.380;44.022;2022-12-11T02:56:37;100270.31;;;3.17;67.09
77047;BME280;65977;56.380;44.022;2022-12-11T02:59:17;100265.84;;;3.19;66.70
77047;BME280;65977;56.380;44.022;2022-12-11T03:01:45;100259.88;;;3.17;67.22
77047;BME280;65977;56.380;44.022;2022-12-11T03:04:11;100266.75;;;3.18;66.92
77047;BME280;65977;56.380;44.022;2022-12-11T03:06:41;100271.25;;;3.16;67.28
77047;BME280;65977;56.380;44.022;2022-12-11T03:09:09;100264.59;;;3.11;67.63
77047;BME280;65977;56.380;44.022;2022-12-11T03:11:34;100260.06;;;3.14;67.18
77047;BME280;65977;56.380;44.022;2022-12-11T03:14:01;100259.94;;;3.16;67.58
77047;BME280;65977;56.380;44.022;2022-12-11T03:16:35;100264.53;;;3.12;67.49
77047;BME280;65977;56.380;44.022;2022-12-11T03:19:32;100258.28;;;3.15;67.50
77047;BME280;65977;56.380;44.022;2022-12-11T03:24:38;100263.22;;;3.19;66.80
77047;BME280;65977;56.380;44.022;2022-12-11T03:27:29;100259.94;;;3.16;67.56
77047;BME280;65977;56.380;44.022;2022-12-11T03:30:02;100263.22;;;3.19;67.53
77047;BME280;65977;56.380;44.022;2022-12-11T03:32:35;100262.22;;;3.22;66.86
77047;BME280;65977;56.380;44.022;2022-12-11T03:35:07;100254.44;;;3.20;67.16
77047;BME280;65977;56.380;44.022;2022-12-11T03:37:37;100253.53;;;3.22;67.33
77047;BME280;65977;56.380;44.022;2022-12-11T03:40:12;100256.03;;;3.23;67.13
77047;BME280;65977;56.380;44.022;2022-12-11T03:42:41;100257.00;;;3.22;67.69
77047;BME280;65977;56.380;44.022;2022-12-11T03:45:08;100257.84;;;3.23;67.65
77047;BME280;65977;56.380;44.022;2022-12-11T03:47:35;100263.78;;;3.25;67.09
77047;BME280;65977;56.380;44.022;2022-12-11T03:50:04;100258.66;;;3.23;67.39
77047;BME280;65977;56.380;44.022;2022-12-11T03:52:31;100247.94;;;3.28;66.95
77047;BME280;65977;56.380;44.022;2022-12-11T03:55:00;100254.00;;;3.28;66.88
77047;BME280;65977;56.380;44.022;2022-12-11T03:57:31;100253.91;;;3.30;67.14
77047;BME280;65977;56.380;44.022;2022-12-11T03:59:58;100262.47;;;3.32;67.20
77047;BME280;65977;56.380;44.022;2022-12-11T04:02:23;100258.00;;;3.34;66.88
77047;BME280;65977;56.380;44.022;2022-12-11T04:04:49;100256.34;;;3.33;67.25
77047;BME280;65977;56.380;44.022;2022-12-11T04:07:15;100264.34;;;3.30;67.16
77047;BME280;65977;56.380;44.022;2022-12-11T04:09:40;100248.41;;;3.34;67.00
77047;BME280;65977;56.380;44.022;2022-12-11T04:12:06;100260.63;;;3.34;67.09
77047;BME280;65977;56.380;44.022;2022-12-11T04:14:32;100259.78;;;3.33;67.40
77047;BME280;65977;56.380;44.022;2022-12-11T04:17:15;100265.66;;;3.37;67.22
77047;BME280;65977;56.380;44.022;2022-12-11T04:20:02;100264.63;;;3.39;66.88
77047;BME280;65977;56.380;44.022;2022-12-11T04:22:46;100271.63;;;3.39;66.84
77047;BME280;65977;56.380;44.022;2022-12-11T04:25:30;100269.13;;;3.37;66.91
77047;BME280;65977;56.380;44.022;2022-12-11T04:27:55;100261.34;;;3.36;67.28
77047;BME280;65977;56.380;44.022;2022-12-11T04:30:23;100276.09;;;3.37;66.87
77047;BME280;65977;56.380;44.022;2022-12-11T04:32:50;100277.03;;;3.36;67.28
77047;BME280;65977;56.380;44.022;2022-12-11T04:35:16;100265.56;;;3.38;66.98
77047;BME280;65977;56.380;44.022;2022-12-11T04:37:42;100277.59;;;3.41;67.41
77047;BME280;65977;56.380;44.022;2022-12-11T04:40:10;100276.66;;;3.42;66.80
77047;BME280;65977;56.380;44.022;2022-12-11T04:42:38;100272.19;;;3.44;66.97
77047;BME280;65977;56.380;44.022;2022-12-11T04:45:05;100271.25;;;3.45;67.35
77047;BME280;65977;56.380;44.022;2022-12-11T04:47:34;100272.84;;;3.47;67.79
77047;BME280;65977;56.380;44.022;2022-12-11T04:50:00;100276.13;;;3.51;66.92
77047;BME280;65977;56.380;44.022;2022-12-11T04:52:26;100274.44;;;3.50;66.96
77047;BME280;65977;56.380;44.022;2022-12-11T04:54:51;100275.09;;;3.53;67.33
77047;BME280;65977;56.380;44.022;2022-12-11T04:57:17;100275.00;;;3.55;67.12
77047;BME280;65977;56.380;44.022;2022-12-11T04:59:44;100280.94;;;3.57;66.87
77047;BME280;65977;56.380;44.022;2022-12-11T05:02:10;100278.34;;;3.57;67.10
77047;BME280;65977;56.380;44.022;2022-12-11T05:04:36;100287.69;;;3.61;66.79
77047;BME280;65977;56.380;44.022;2022-12-11T05:07:01;100291.88;;;3.63;66.79
77047;BME280;65977;56.380;44.022;2022-12-11T05:09:27;100295.25;;;3.65;67.08
77047;BME280;65977;56.380;44.022;2022-12-11T05:11:53;100293.47;;;3.66;67.05
77047;BME280;65977;56.380;44.022;2022-12-11T05:14:19;100299.44;;;3.68;66.37
77047;BME280;65977;56.380;44.022;2022-12-11T05:16:45;100295.25;;;3.65;66.91
77047;BME280;65977;56.380;44.022;2022-12-11T05:19:11;100293.47;;;3.66;66.52
77047;BME280;65977;56.380;44.022;2022-12-11T05:21:36;100291.78;;;3.65;66.99
77047;BME280;65977;56.380;44.022;2022-12-11T05:24:02;100298.59;;;3.67;67.18
77047;BME280;65977;56.380;44.022;2022-12-11T05:26:28;100301.31;;;3.66;66.73
77047;BME280;65977;56.380;44.022;2022-12-11T05:28:54;100304.56;;;3.69;66.79
77047;BME280;65977;56.380;44.022;2022-12-11T05:31:23;100314.94;;;3.71;66.94
77047;BME280;65977;56.380;44.022;2022-12-11T05:33:49;100307.91;;;3.71;66.69
77047;BME280;65977;56.380;44.022;2022-12-11T05:36:27;100318.28;;;3.73;66.49
77047;BME280;65977;56.380;44.022;2022-12-11T05:38:53;100320.06;;;3.72;66.60
77047;BME280;65977;56.380;44.022;2022-12-11T05:41:21;100315.66;;;3.73;66.81
77047;BME280;65977;56.380;44.022;2022-12-11T05:43:47;100311.28;;;3.73;66.86
77047;BME280;65977;56.380;44.022;2022-12-11T05:46:31;100307.53;;;3.77;67.10
77047;BME280;65977;56.380;44.022;2022-12-11T05:48:59;100308.47;;;3.76;66.84
77047;BME280;65977;56.380;44.022;2022-12-11T05:51:26;100315.19;;;3.80;66.85
77047;BME280;65977;56.380;44.022;2022-12-11T05:53:52;100317.63;;;3.83;66.42
77047;BME280;65977;56.380;44.022;2022-12-11T05:56:27;100320.25;;;3.83;66.81
77047;BME280;65977;56.380;44.022;2022-12-11T05:58:53;100330.47;;;3.87;66.52
77047;BME280;65977;56.380;44.022;2022-12-11T06:01:25;100330.59;;;3.85;66.35
77047;BME280;65977;56.380;44.022;2022-12-11T06:03:53;100335.81;;;3.85;66.34
77047;BME280;65977;56.380;44.022;2022-12-11T06:06:19;100348.53;;;3.91;66.33
77047;BME280;65977;56.380;44.022;2022-12-11T06:08:45;100340.94;;;3.87;66.39
77047;BME280;65977;56.380;44.022;2022-12-11T06:11:12;100346.38;;;3.83;67.15
77047;BME280;65977;56.380;44.022;2022-12-11T06:13:40;100343.56;;;3.87;66.70
77047;BME280;65977;56.380;44.022;2022-12-11T06:16:06;100351.41;;;3.87;66.54
77047;BME280;65977;56.380;44.022;2022-12-11T06:18:37;100348.88;;;3.85;67.07
77047;BME280;65977;56.380;44.022;2022-12-11T06:21:10;100355.59;;;3.89;67.01
77047;BME280;65977;56.380;44.022;2022-12-11T06:23:37;100353.81;;;3.90;66.79
77047;BME280;65977;56.380;44.022;2022-12-11T06:26:03;100354.50;;;3.93;66.32
77047;BME280;65977;56.380;44.022;2022-12-11T06:28:28;100361.59;;;3.91;66.74
77047;BME280;65977;56.380;44.022;2022-12-11T06:30:58;100357.00;;;3.95;66.95
77047;BME280;65977;56.380;44.022;2022-12-11T06:33:24;100345.25;;;3.88;66.95
77047;BME280;65977;56.380;44.022;2022-12-11T06:35:50;100364.22;;;3.91;66.71
77047;BME280;65977;56.380;44.022;2022-12-11T06:38:16;100374.09;;;4.00;66.62
77047;BME280;65977;56.380;44.022;2022-12-11T06:40:42;100376.81;;;3.99;66.88
77047;BME280;65977;56.380;44.022;2022-12-11T06:43:08;100383.81;;;3.98;66.43
77047;BME280;65977;56.380;44.022;2022-12-11T06:45:34;100378.66;;;3.97;66.56
77047;BME280;65977;56.380;44.022;2022-12-11T06:48:00;100380.44;;;3.96;66.89
77047;BME280;65977;56.380;44.022;2022-12-11T06:50:26;100386.13;;;4.03;66.75
77047;BME280;65977;56.380;44.022;2022-12-11T06:52:52;100381.19;;;3.98;67.05
77047;BME280;65977;56.380;44.022;2022-12-11T06:55:17;100381.19;;;3.98;67.00
77047;BME280;65977;56.380;44.022;2022-12-11T06:57:43;100382.41;;;3.93;66.92
77047;BME280;65977;56.380;44.022;2022-12-11T07:00:09;100388.66;;;3.90;67.16
77047;BME280;65977;56.380;44.022;2022-12-11T07:02:35;100388.66;;;3.90;67.08
77047;BME280;65977;56.380;44.022;2022-12-11T07:05:01;100399.22;;;3.89;67.30
77047;BME280;65977;56.380;44.022;2022-12-11T07:07:28;100395.81;;;3.87;67.64
77047;BME280;65977;56.380;44.022;2022-12-11T07:09:54;100393.97;;;3.89;67.85
77047;BME280;65977;56.380;44.022;2022-12-11T07:12:20;100399.00;;;3.92;67.69
77047;BME280;65977;56.380;44.022;2022-12-11T07:14:45;100394.72;;;3.91;67.62
77047;BME280;65977;56.380;44.022;2022-12-11T07:17:11;100393.03;;;3.90;67.58
77047;BME280;65977;56.380;44.022;2022-12-11T07:19:37;100396.50;;;3.90;67.94
77047;BME280;65977;56.380;44.022;2022-12-11T07:22:03;100399.94;;;3.91;67.73
77047;BME280;65977;56.380;44.022;2022-12-11T07:24:28;100399.66;;;3.95;67.52
77047;BME280;65977;56.380;44.022;2022-12-11T07:26:54;100394.16;;;4.00;67.46
77047;BME280;65977;56.380;44.022;2022-12-11T07:29:20;100403.69;;;4.01;67.45
77047;BME280;65977;56.380;44.022;2022-12-11T07:31:45;100407.72;;;4.06;67.16
77047;BME280;65977;56.380;44.022;2022-12-11T07:34:12;100402.28;;;4.09;67.41
77047;BME280;65977;56.380;44.022;2022-12-11T07:36:38;100408.81;;;4.16;67.36
77047;BME280;65977;56.380;44.022;2022-12-11T07:39:04;100406.03;;;4.19;67.31
77047;BME280;65977;56.380;44.022;2022-12-11T07:41:30;100404.59;;;4.28;66.80
77047;BME280;65977;56.380;44.022;2022-12-11T07:43:58;100406.84;;;4.20;66.00
77047;BME280;65977;56.380;44.022;2022-12-11T07:46:26;100412.34;;;4.15;66.18
77047;BME280;65977;56.380;44.022;2022-12-11T07:48:52;100408.72;;;4.04;66.92
77047;BME280;65977;56.380;44.022;2022-12-11T07:51:29;100416.28;;;3.94;67.39
77047;BME280;65977;56.380;44.022;2022-12-11T07:54:00;100403.88;;;3.83;67.91
77047;BME280;65977;56.380;44.022;2022-12-11T07:56:27;100405.91;;;3.93;68.12
77047;BME280;65977;56.380;44.022;2022-12-11T07:58:53;100403.41;;;3.91;68.59
77047;BME280;65977;56.380;44.022;2022-12-11T08:01:22;100405.63;;;3.97;68.87
77047;BME280;65977;56.380;44.022;2022-12-11T08:03:49;100416.41;;;4.07;68.72
77047;BME280;65977;56.380;44.022;2022-12-11T08:06:18;100412.06;;;4.20;69.17
77047;BME280;65977;56.380;44.022;2022-12-11T08:08:46;100407.50;;;4.23;68.45
77047;BME280;65977;56.380;44.022;2022-12-11T08:11:13;100408.78;;;4.30;67.50
77047;BME280;65977;56.380;44.022;2022-12-11T08:13:40;100412.16;;;4.32;67.83
77047;BME280;65977;56.380;44.022;2022-12-11T08:16:07;100420.56;;;4.37;67.37
77047;BME280;65977;56.380;44.022;2022-12-11T08:18:34;100417.84;;;4.39;67.55
77047;BME280;65977;56.380;44.022;2022-12-11T08:21:08;100425.31;;;4.45;67.01
77047;BME280;65977;56.380;44.022;2022-12-11T08:23:35;100408.50;;;4.35;66.66
77047;BME280;65977;56.380;44.022;2022-12-11T08:26:04;100418.78;;;4.38;66.92
77047;BME280;65977;56.380;44.022;2022-12-11T08:28:30;100428.03;;;4.43;66.51
77047;BME280;65977;56.380;44.022;2022-12-11T08:30:56;100439.03;;;4.48;66.83
77047;BME280;65977;56.380;44.022;2022-12-11T08:33:22;100440.06;;;4.46;66.57
77047;BME280;65977;56.380;44.022;2022-12-11T08:35:48;100428.31;;;4.39;66.51
77047;BME280;65977;56.380;44.022;2022-12-11T08:38:14;100450.53;;;4.46;66.46
77047;BME280;65977;56.380;44.022;2022-12-11T08:40:40;100439.34;;;4.44;66.74
77047;BME280;65977;56.380;44.022;2022-12-11T08:43:06;100440.81;;;4.48;66.53
77047;BME280;65977;56.380;44.022;2022-12-11T08:45:31;100449.22;;;4.53;66.60
77047;BME280;65977;56.380;44.022;2022-12-11T08:47:58;100450.19;;;4.52;66.12
77047;BME280;65977;56.380;44.022;2022-12-11T08:50:24;100446.22;;;4.59;66.37
77047;BME280;65977;56.380;44.022;2022-12-11T08:52:50;100446.41;;;4.56;66.07
77047;BME280;65977;56.380;44.022;2022-12-11T08:55:15;100438.75;;;4.53;66.30
77047;BME280;65977;56.380;44.022;2022-12-11T08:57:41;100444.09;;;4.52;65.97
77047;BME280;65977;56.380;44.022;2022-12-11T09:00:08;100447.34;;;4.55;66.09
77047;BME280;65977;56.380;44.022;2022-12-11T09:02:36;100459.22;;;4.61;65.81
77047;BME280;65977;56.380;44.022;2022-12-11T09:05:03;100458.66;;;4.56;66.13
77047;BME280;65977;56.380;44.022;2022-12-11T09:07:33;100451.34;;;4.61;66.11
77047;BME280;65977;56.380;44.022;2022-12-11T09:09:59;100452.38;;;4.58;66.17
77047;BME280;65977;56.380;44.022;2022-12-11T09:12:25;100461.00;;;4.60;66.09
77047;BME280;65977;56.380;44.022;2022-12-11T09:14:51;100448.75;;;4.61;66.28
77047;BME280;65977;56.380;44.022;2022-12-11T09:17:17;100449.97;;;4.55;66.44
77047;BME280;65977;56.380;44.022;2022-12-11T09:19:43;100460.16;;;4.60;66.41
77047;BME280;65977;56.380;44.022;2022-12-11T09:22:08;100463.22;;;4.66;65.67
77047;BME280;65977;56.380;44.022;2022-12-11T09:24:36;100467.91;;;4.61;66.27
77047;BME280;65977;56.380;44.022;2022-12-11T09:27:03;100469.50;;;4.64;65.99
77047;BME280;65977;56.380;44.022;2022-12-11T09:29:29;100463.88;;;4.56;66.18
77047;BME280;65977;56.380;44.022;2022-12-11T09:31:54;100481.16;;;4.58;66.49
77047;BME280;65977;56.380;44.022;2022-12-11T09:34:20;100480.00;;;4.50;66.52
77047;BME280;65977;56.380;44.022;2022-12-11T09:36:46;100481.47;;;4.54;66.29
77047;BME280;65977;56.380;44.022;2022-12-11T09:39:13;100482.31;;;4.54;66.64
77047;BME280;65977;56.380;44.022;2022-12-11T09:44:56;100487.53;;;4.54;66.84
77047;BME280;65977;56.380;44.022;2022-12-11T09:47:32;100485.66;;;4.56;66.62
77047;BME280;65977;56.380;44.022;2022-12-11T09:52:37;100496.13;;;4.56;66.42
77047;BME280;65977;56.380;44.022;2022-12-11T09:55:18;100496.31;;;4.53;66.20
77047;BME280;65977;56.380;44.022;2022-12-11T10:08:41;100510.97;;;4.56;66.66
77047;BME280;65977;56.380;44.022;2022-12-11T16:28:44;100758.56;;;4.88;66.12
77047;BME280;65977;56.380;44.022;2022-12-11T16:31:11;100762.38;;;4.82;66.38
77047;BME280;65977;56.380;44.022;2022-12-11T16:33:38;100750.97;;;4.83;66.38
77047;BME280;65977;56.380;44.022;2022-12-11T16:36:17;100756.19;;;4.83;66.38
77047;BME280;65977;56.380;44.022;2022-12-11T16:38:45;100753.69;;;4.82;66.33
77047;BME280;65977;56.380;44.022;2022-12-11T16:41:11;100748.34;;;4.83;66.29
77047;BME280;65977;56.380;44.022;2022-12-11T16:43:36;100749.88;;;4.87;66.19
77047;BME280;65977;56.380;44.022;2022-12-11T16:46:02;100757.78;;;4.86;66.26
77047;BME280;65977;56.380;44.022;2022-12-11T16:48:28;100758.56;;;4.88;66.27
77047;BME280;65977;56.380;44.022;2022-12-11T16:50:54;100761.25;;;4.86;66.14
77047;BME280;65977;56.380;44.022;2022-12-11T16:53:20;100768.19;;;4.87;66.33
77047;BME280;65977;56.380;44.022;2022-12-11T16:55:46;100772.69;;;4.85;66.54
77047;BME280;65977;56.380;44.022;2022-12-11T16:58:12;100764.72;;;4.87;66.56
77047;BME280;65977;56.380;44.022;2022-12-11T17:00:47;100768.94;;;4.89;66.31
77047;BME280;65977;56.380;44.022;2022-12-11T17:03:13;100769.69;;;4.91;66.39
77047;BME280;65977;56.380;44.022;2022-12-11T17:05:39;100772.22;;;4.93;66.22
77047;BME280;65977;56.380;44.022;2022-12-11T17:08:06;100772.13;;;4.94;65.97
77047;BME280;65977;56.380;44.022;2022-12-11T17:10:32;100772.03;;;4.96;66.11
77047;BME280;65977;56.380;44.022;2022-12-11T17:12:57;100776.25;;;4.98;65.98
77047;BME280;65977;56.380;44.022;2022-12-11T17:15:23;100772.69;;;4.99;65.66
77047;BME280;65977;56.380;44.022;2022-12-11T17:17:49;100769.97;;;5.01;65.63
77047;BME280;65977;56.380;44.022;2022-12-11T17:20:14;100768.13;;;5.03;65.73
77047;BME280;65977;56.380;44.022;2022-12-11T17:22:40;100761.94;;;5.04;65.81
77047;BME280;65977;56.380;44.022;2022-12-11T17:25:06;100745.31;;;5.05;65.59
77047;BME280;65977;56.380;44.022;2022-12-11T17:27:32;100751.41;;;5.05;65.47
77047;BME280;65977;56.380;44.022;2022-12-11T17:29:58;100743.44;;;5.07;65.32
77047;BME280;65977;56.380;44.022;2022-12-11T17:32:23;100734.72;;;5.06;65.15
77047;BME280;65977;56.380;44.022;2022-12-11T17:34:49;100736.78;;;5.01;65.38
77047;BME280;65977;56.380;44.022;2022-12-11T17:37:16;100763.53;;;5.06;65.61
77047;BME280;65977;56.380;44.022;2022-12-11T17:39:42;100760.06;;;5.06;65.27
77047;BME280;65977;56.380;44.022;2022-12-11T17:42:07;100747.94;;;5.05;65.50
77047;BME280;65977;56.380;44.022;2022-12-11T17:44:33;100737.47;;;5.05;65.36
77047;BME280;65977;56.380;44.022;2022-12-11T17:46:59;100737.47;;;5.05;65.47
77047;BME280;65977;56.380;44.022;2022-12-11T17:49:25;100715.75;;;5.03;65.06
77047;BME280;65977;56.380;44.022;2022-12-11T17:51:51;100705.47;;;5.00;65.41
77047;BME280;65977;56.380;44.022;2022-12-11T17:54:20;100714.25;;;4.99;64.95
77047;BME280;65977;56.380;44.022;2022-12-11T17:56:46;100717.88;;;4.96;65.33
77047;BME280;65977;56.380;44.022;2022-12-11T17:59:12;100718.00;;;4.95;65.31
77047;BME280;65977;56.380;44.022;2022-12-11T18:01:37;100725.91;;;4.93;65.52
77047;BME280;65977;56.380;44.022;2022-12-11T18:04:03;100746.88;;;4.93;65.36
77047;BME280;65977;56.380;44.022;2022-12-11T18:06:29;100766.16;;;4.92;65.61
77047;BME280;65977;56.380;44.022;2022-12-11T18:08:56;100779.41;;;4.89;66.15
77047;BME280;65977;56.380;44.022;2022-12-11T18:11:22;100776.13;;;4.86;66.26
77047;BME280;65977;56.380;44.022;2022-12-11T18:13:48;100762.22;;;4.85;66.07
77047;BME280;65977;56.380;44.022;2022-12-11T18:16:21;100764.84;;;4.85;66.16
77047;BME280;65977;56.380;44.022;2022-12-11T18:18:48;100760.50;;;4.84;65.90
77047;BME280;65977;56.380;44.022;2022-12-11T18:21:17;100750.88;;;4.85;66.02
77047;BME280;65977;56.380;44.022;2022-12-11T18:23:44;100762.22;;;4.85;65.66
77047;BME280;65977;56.380;44.022;2022-12-11T18:26:10;100770.25;;;4.82;66.50
77047;BME280;65977;56.380;44.022;2022-12-11T18:28:39;100777.25;;;4.82;66.38
77047;BME280;65977;56.380;44.022;2022-12-11T18:31:05;100792.84;;;4.83;66.33
77047;BME280;65977;56.380;44.022;2022-12-11T18:33:35;100780.78;;;4.81;66.40
77047;BME280;65977;56.380;44.022;2022-12-11T18:36:01;100782.59;;;4.80;66.49
77047;BME280;65977;56.380;44.022;2022-12-11T18:38:27;100771.25;;;4.80;66.38
77047;BME280;65977;56.380;44.022;2022-12-11T18:40:53;100774.63;;;4.82;66.12
77047;BME280;65977;56.380;44.022;2022-12-11T18:43:18;100765.19;;;4.79;66.04
77047;BME280;65977;56.380;44.022;2022-12-11T18:45:44;100757.16;;;4.82;66.08
77047;BME280;65977;56.380;44.022;2022-12-11T18:48:10;100763.97;;;4.85;66.03
77047;BME280;65977;56.380;44.022;2022-12-11T18:50:36;100757.03;;;4.84;65.87
77047;BME280;65977;56.380;44.022;2022-12-11T18:53:02;100773.50;;;4.86;65.76
77047;BME280;65977;56.380;44.022;2022-12-11T18:55:29;100783.81;;;4.89;65.74
77047;BME280;65977;56.380;44.022;2022-12-11T18:57:55;100783.16;;;4.85;66.47
77047;BME280;65977;56.380;44.022;2022-12-11T19:00:20;100776.91;;;4.88;66.36
77047;BME280;65977;56.380;44.022;2022-12-11T19:02:49;100776.78;;;4.89;66.00
77047;BME280;65977;56.380;44.022;2022-12-11T19:05:16;100770.72;;;4.89;66.10
77047;BME280;65977;56.380;44.022;2022-12-11T19:07:42;100763.88;;;4.86;66.56
77047;BME280;65977;56.380;44.022;2022-12-11T19:10:08;100759.59;;;4.85;66.13
77047;BME280;65977;56.380;44.022;2022-12-11T19:12:35;100760.34;;;4.87;65.98
77047;BME280;65977;56.380;44.022;2022-12-11T19:15:00;100750.88;;;4.85;66.12
77047;BME280;65977;56.380;44.022;2022-12-11T19:17:26;100746.56;;;4.84;66.12
77047;BME280;65977;56.380;44.022;2022-12-11T19:19:52;100749.19;;;4.84;66.08
77047;BME280;65977;56.380;44.022;2022-12-11T19:22:18;100755.38;;;4.83;66.54
77047;BME280;65977;56.380;44.022;2022-12-11T19:24:44;100753.56;;;4.83;66.34
77047;BME280;65977;56.380;44.022;2022-12-11T19:27:09;100752.75;;;4.83;67.34
77047;BME280;65977;56.380;44.022;2022-12-11T19:29:35;100749.13;;;4.85;66.12
77047;BME280;65977;56.380;44.022;2022-12-11T19:32:02;100744.91;;;4.83;65.88
77047;BME280;65977;56.380;44.022;2022-12-11T19:34:28;100756.19;;;4.83;65.93
77047;BME280;65977;56.380;44.022;2022-12-11T19:36:54;100748.72;;;4.77;65.87
77047;BME280;65977;56.380;44.022;2022-12-11T19:39:20;100754.59;;;4.81;66.08
77047;BME280;65977;56.380;44.022;2022-12-11T19:41:46;100771.16;;;4.81;65.97